createdAt,value
2018-04-22T00:01:19.398Z,35.27
2018-04-22T00:03:46.869Z,36.73
2018-04-22T00:06:14.362Z,36.53
2018-04-22T00:08:41.837Z,38.10
2018-04-22T00:11:09.340Z,38.53
2018-04-22T00:13:36.810Z,38.23
2018-04-22T00:16:04.305Z,37.10
2018-04-22T00:18:31.781Z,35.60
2018-04-22T00:20:59.278Z,37.37
2018-04-22T00:23:26.749Z,35.30
2018-04-22T00:25:54.520Z,37.57
2018-04-22T00:28:22.047Z,37.30
2018-04-22T00:30:49.539Z,36.60
2018-04-22T00:33:17.022Z,37.73
2018-04-22T00:35:44.515Z,38.70
2018-04-22T00:38:11.980Z,40.20
2018-04-22T00:40:39.493Z,41.43
2018-04-22T00:43:06.957Z,40.03
2018-04-22T00:45:34.427Z,40.10
2018-04-22T00:48:01.910Z,36.50
2018-04-22T00:50:29.383Z,38.83
2018-04-22T00:52:56.870Z,37.53
2018-04-22T00:55:24.690Z,34.43
2018-04-22T00:57:52.180Z,38.30
2018-04-22T01:00:19.657Z,36.63
2018-04-22T01:02:47.150Z,35.50
2018-04-22T01:05:14.718Z,36.13
2018-04-22T01:07:42.225Z,35.17
2018-04-22T01:10:09.858Z,35.13
2018-04-22T01:12:37.343Z,34.07
2018-04-22T01:15:04.829Z,36.77
2018-04-22T01:17:32.329Z,34.80
2018-04-22T01:19:59.795Z,34.97
2018-04-22T01:22:27.266Z,36.07
2018-04-22T01:24:54.757Z,32.30
2018-04-22T01:27:22.238Z,31.13
2018-04-22T01:29:49.730Z,31.40
2018-04-22T01:32:17.198Z,41.63
2018-04-22T01:34:44.690Z,42.30
2018-04-22T01:37:12.154Z,42.40
2018-04-22T01:39:39.643Z,44.80
2018-04-22T01:42:07.107Z,43.10
2018-04-22T01:44:34.598Z,45.70
2018-04-22T01:47:02.065Z,48.47
2018-04-22T01:49:29.558Z,52.03
2018-04-22T01:51:57.034Z,53.20
2018-04-22T01:54:24.526Z,51.90
2018-04-22T01:56:51.994Z,49.87
2018-04-22T01:59:19.492Z,49.43
2018-04-22T02:01:46.963Z,46.17
2018-04-22T02:04:14.452Z,47.63
2018-04-22T02:06:41.919Z,42.40
2018-04-22T02:09:09.414Z,41.23
2018-04-22T02:11:36.888Z,42.27
2018-04-22T02:14:04.396Z,40.40
2018-04-22T02:16:31.861Z,37.43
2018-04-22T02:18:59.355Z,41.80
2018-04-22T02:21:26.825Z,43.20
2018-04-22T02:23:54.321Z,41.17
2018-04-22T02:26:21.786Z,40.20
2018-04-22T02:28:49.274Z,38.03
2018-04-22T02:31:16.747Z,36.13
2018-04-22T02:33:44.218Z,43.53
2018-04-22T02:36:11.717Z,45.07
2018-04-22T02:38:39.181Z,43.53
2018-04-22T02:41:06.683Z,45.57
2018-04-22T02:43:34.214Z,42.83
2018-04-22T02:46:01.682Z,42.37
2018-04-22T02:48:29.153Z,41.43
2018-04-22T02:50:56.640Z,46.87
2018-04-22T02:53:24.114Z,47.67
2018-04-22T02:55:51.610Z,44.10
2018-04-22T02:58:19.083Z,46.17
2018-04-22T03:00:46.567Z,48.30
2018-04-22T03:03:14.036Z,48.00
2018-04-22T03:05:41.522Z,42.40
2018-04-22T03:08:08.981Z,43.40
2018-04-22T03:10:36.474Z,43.23
2018-04-22T03:13:03.937Z,41.73
2018-04-22T03:15:31.435Z,43.53
2018-04-22T03:17:58.910Z,41.37
2018-04-22T03:20:26.399Z,48.13
2018-04-22T03:22:53.865Z,52.78
2018-04-22T03:25:21.350Z,45.33
2018-04-22T03:27:48.823Z,42.93
2018-04-22T03:30:16.309Z,41.70
2018-04-22T03:32:43.775Z,43.33
2018-04-22T03:35:11.261Z,44.10
2018-04-22T03:37:38.734Z,44.40
2018-04-22T03:40:06.214Z,42.77
2018-04-22T03:42:33.789Z,44.47
2018-04-22T03:45:01.279Z,44.20
2018-04-22T03:47:28.742Z,43.73
2018-04-22T03:49:56.242Z,42.17
2018-04-22T03:52:23.709Z,44.10
2018-04-22T03:54:51.189Z,47.13
2018-04-22T03:57:18.662Z,45.00
2018-04-22T03:59:46.131Z,46.00
2018-04-22T04:02:13.613Z,46.77
2018-04-22T04:04:41.081Z,45.13
2018-04-22T04:07:08.565Z,42.37
2018-04-22T04:09:36.034Z,46.27
2018-04-22T04:12:03.521Z,43.50
2018-04-22T04:14:30.991Z,44.13
2018-04-22T04:16:58.478Z,46.17
2018-04-22T04:19:37.661Z,45.37
2018-04-22T04:22:16.817Z,45.03
2018-04-22T04:24:56.954Z,45.43
2018-04-22T04:30:23.253Z,45.47
2018-04-22T04:32:50.746Z,39.13
2018-04-22T04:35:18.207Z,39.90
2018-04-22T04:37:45.698Z,40.47
2018-04-22T04:40:13.174Z,41.90
2018-04-22T04:42:40.662Z,41.73
2018-04-22T04:45:08.126Z,43.00
2018-04-22T04:47:35.610Z,43.63
2018-04-22T04:50:03.076Z,40.83
2018-04-22T04:52:30.571Z,43.10
2018-04-22T04:54:58.034Z,40.47
2018-04-22T04:57:25.521Z,38.67
2018-04-22T04:59:52.978Z,39.00
2018-04-22T05:02:20.457Z,40.77
2018-04-22T05:04:47.925Z,40.40
2018-04-22T05:07:15.413Z,38.20
2018-04-22T05:09:42.883Z,38.90
2018-04-22T05:12:10.365Z,37.80
2018-04-22T05:14:37.834Z,37.57
2018-04-22T05:17:05.322Z,37.63
2018-04-22T05:19:32.797Z,36.57
2018-04-22T05:22:00.299Z,37.07
2018-04-22T05:24:27.761Z,34.70
2018-04-22T05:26:55.242Z,34.93
2018-04-22T05:29:22.712Z,36.00
2018-04-22T05:31:50.198Z,36.83
2018-04-22T05:34:17.664Z,35.40
2018-04-22T05:36:45.198Z,34.93
2018-04-22T05:39:12.658Z,32.80
2018-04-22T05:41:40.149Z,34.37
2018-04-22T05:44:07.623Z,34.53
2018-04-22T05:46:35.098Z,33.03
2018-04-22T05:49:02.578Z,31.93
2018-04-22T05:51:30.041Z,33.87
2018-04-22T05:53:57.555Z,33.50
2018-04-22T05:56:25.026Z,33.03
2018-04-22T05:58:52.509Z,32.83
2018-04-22T06:01:19.979Z,32.23
2018-04-22T06:03:47.467Z,32.30
2018-04-22T06:06:14.934Z,33.13
2018-04-22T06:08:42.413Z,32.47
2018-04-22T06:11:09.878Z,32.73
2018-04-22T06:13:37.362Z,31.27
2018-04-22T06:16:04.826Z,32.70
2018-04-22T06:18:32.322Z,28.60
2018-04-22T06:20:59.784Z,30.37
2018-04-22T06:23:27.265Z,30.70
2018-04-22T06:25:54.802Z,30.07
2018-04-22T06:28:22.298Z,29.70
2018-04-22T06:30:49.779Z,29.00
2018-04-22T06:33:17.270Z,27.50
2018-04-22T06:35:44.743Z,27.57
2018-04-22T06:38:14.354Z,26.53
2018-04-22T06:40:41.817Z,26.37
2018-04-22T06:43:09.307Z,26.30
2018-04-22T06:45:37.175Z,25.07
2018-04-22T06:48:04.663Z,25.07
2018-04-22T06:50:32.138Z,24.53
2018-04-22T06:52:59.626Z,22.33
2018-04-22T06:55:27.089Z,22.13
2018-04-22T06:57:54.580Z,21.17
2018-04-22T07:00:22.043Z,20.20
2018-04-22T07:02:49.533Z,22.23
2018-04-22T07:05:17.043Z,20.33
2018-04-22T07:07:44.535Z,18.90
2018-04-22T07:10:12.027Z,20.53
2018-04-22T07:12:39.510Z,21.07
2018-04-22T07:15:07.003Z,21.67
2018-04-22T07:17:34.489Z,20.57
2018-04-22T07:20:01.975Z,20.50
2018-04-22T07:22:29.480Z,20.57
2018-04-22T07:24:56.957Z,20.30
2018-04-22T07:27:24.418Z,21.03
2018-04-22T07:29:51.959Z,19.67
2018-04-22T07:32:19.426Z,21.50
2018-04-22T07:34:46.918Z,20.17
2018-04-22T07:37:14.491Z,21.53
2018-04-22T07:39:41.973Z,18.63
2018-04-22T07:42:09.437Z,18.10
2018-04-22T07:44:44.491Z,19.00
2018-04-22T07:47:12.073Z,18.23
2018-04-22T07:49:40.333Z,18.07
2018-04-22T07:52:07.912Z,17.20
2018-04-22T07:54:35.469Z,17.03
2018-04-22T07:57:03.011Z,16.93
2018-04-22T07:59:30.514Z,16.27
2018-04-22T08:01:57.987Z,17.07
2018-04-22T08:04:25.475Z,15.57
2018-04-22T08:06:52.942Z,16.10
2018-04-22T08:09:20.424Z,15.70
2018-04-22T08:11:47.926Z,16.67
2018-04-22T08:14:15.406Z,15.07
2018-04-22T08:16:42.886Z,14.17
2018-04-22T08:19:10.366Z,15.57
2018-04-22T08:21:37.826Z,15.00
2018-04-22T08:24:05.305Z,13.10
2018-04-22T08:26:32.761Z,13.80
2018-04-22T08:29:00.300Z,15.87
2018-04-22T08:31:27.768Z,13.80
2018-04-22T08:33:55.324Z,12.93
2018-04-22T08:36:22.790Z,12.10
2018-04-22T08:38:50.293Z,16.77
2018-04-22T08:41:17.753Z,13.37
2018-04-22T08:43:45.221Z,12.90
2018-04-22T08:46:12.784Z,10.87
2018-04-22T08:48:40.251Z,12.13
2018-04-22T08:54:38.546Z,12.20
2018-04-22T08:57:06.080Z,10.60
2018-04-22T08:59:33.566Z,12.37
2018-04-22T09:02:01.035Z,11.13
2018-04-22T09:04:28.521Z,10.27
2018-04-22T09:06:55.982Z,11.93
2018-04-22T09:09:23.457Z,9.30
2018-04-22T09:11:50.917Z,10.37
2018-04-22T09:14:18.397Z,9.97
2018-04-22T09:16:45.853Z,8.80
2018-04-22T09:19:13.322Z,10.57
2018-04-22T09:21:40.797Z,9.63
2018-04-22T09:24:08.253Z,11.27
2018-04-22T09:26:35.729Z,8.67
2018-04-22T09:29:03.189Z,10.87
2018-04-22T09:31:30.673Z,9.20
2018-04-22T09:33:58.131Z,9.00
2018-04-22T09:36:26.466Z,9.27
2018-04-22T09:38:53.983Z,8.30
2018-04-22T09:41:21.457Z,10.63
2018-04-22T09:43:48.926Z,10.40
2018-04-22T09:46:16.401Z,8.83
2018-04-22T09:48:43.858Z,9.70
2018-04-22T09:51:11.347Z,8.73
2018-04-22T09:53:38.810Z,10.70
2018-04-22T09:56:06.290Z,10.27
2018-04-22T09:58:33.747Z,9.03
2018-04-22T10:01:01.292Z,9.23
2018-04-22T10:03:31.590Z,6.63
2018-04-22T10:06:01.855Z,11.00
2018-04-22T10:08:29.313Z,6.70
2018-04-22T10:10:56.842Z,10.13
2018-04-22T10:13:24.261Z,6.80
2018-04-22T10:15:51.738Z,8.43
2018-04-22T10:18:19.198Z,9.50
2018-04-22T10:20:46.673Z,9.73
2018-04-22T10:23:14.130Z,8.50
2018-04-22T10:25:41.598Z,6.30
2018-04-22T10:28:09.050Z,7.80
2018-04-22T10:30:36.576Z,8.63
2018-04-22T10:33:04.015Z,7.80
2018-04-22T10:35:31.502Z,11.60
2018-04-22T10:37:58.965Z,9.63
2018-04-22T10:40:26.438Z,9.77
2018-04-22T10:42:53.886Z,8.83
2018-04-22T10:45:21.338Z,9.13
2018-04-22T10:47:48.809Z,6.10
2018-04-22T10:50:16.264Z,6.63
2018-04-22T10:52:44.368Z,6.80
2018-04-22T10:55:11.833Z,6.47
2018-04-22T10:57:39.321Z,10.23
2018-04-22T11:00:06.781Z,9.70
2018-04-22T11:02:34.256Z,10.23
2018-04-22T11:05:01.741Z,6.47
2018-04-22T11:07:29.218Z,6.37
2018-04-22T11:09:56.683Z,8.67
2018-04-22T11:12:24.158Z,8.97
2018-04-22T11:14:51.622Z,7.23
2018-04-22T11:17:19.097Z,5.90
2018-04-22T11:19:46.551Z,8.80
2018-04-22T11:22:14.022Z,6.93
2018-04-22T11:24:41.470Z,7.23
2018-04-22T11:27:08.949Z,7.27
2018-04-22T11:29:36.405Z,6.30
2018-04-22T11:32:03.877Z,7.27
2018-04-22T11:34:31.332Z,8.17
2018-04-22T11:36:58.810Z,8.13
2018-04-22T11:39:26.266Z,6.07
2018-04-22T11:41:53.733Z,8.90
2018-04-22T11:44:21.187Z,5.40
2018-04-22T11:46:48.670Z,10.07
2018-04-22T11:49:16.124Z,4.33
2018-04-22T11:51:43.602Z,12.70
2018-04-22T11:54:11.049Z,6.93
2018-04-22T11:56:38.522Z,7.43
2018-04-22T11:59:05.982Z,7.30
2018-04-22T12:01:33.462Z,6.77
2018-04-22T12:04:00.963Z,5.27
2018-04-22T12:06:28.460Z,6.40
2018-04-22T12:08:55.934Z,5.40
2018-04-22T12:11:23.398Z,7.95
2018-04-22T12:13:50.874Z,7.97
2018-04-22T12:16:18.330Z,8.13
2018-04-22T12:18:45.809Z,6.73
2018-04-22T12:21:13.276Z,7.32
2018-04-22T12:23:40.765Z,5.23
2018-04-22T12:26:08.223Z,6.07
2018-04-22T12:28:35.721Z,5.43
2018-04-22T12:31:03.175Z,9.90
2018-04-22T12:33:30.655Z,6.70
2018-04-22T12:35:58.117Z,5.95
2018-04-22T12:38:25.606Z,7.68
2018-04-22T12:40:53.083Z,22.65
2018-04-22T12:43:20.569Z,7.27
2018-04-22T12:45:48.036Z,6.83
2018-04-22T12:48:15.509Z,7.37
2018-04-22T12:50:42.979Z,6.90
2018-04-22T12:53:10.463Z,6.80
2018-04-22T12:55:37.917Z,7.90
2018-04-22T12:58:05.426Z,6.37
2018-04-22T13:00:32.888Z,6.10
2018-04-22T13:03:00.373Z,7.40
2018-04-22T13:05:27.830Z,8.67
2018-04-22T13:07:55.319Z,7.23
2018-04-22T13:10:22.782Z,7.60
2018-04-22T13:12:50.276Z,10.43
2018-04-22T13:15:17.733Z,7.37
2018-04-22T13:17:45.219Z,5.50
2018-04-22T13:20:12.690Z,8.00
2018-04-22T13:22:40.170Z,10.60
2018-04-22T13:25:07.632Z,8.97
2018-04-22T13:27:35.107Z,7.90
2018-04-22T13:30:02.565Z,5.93
2018-04-22T13:32:30.050Z,4.80
2018-04-22T13:34:57.506Z,5.60
2018-04-22T13:37:24.969Z,6.73
2018-04-22T13:39:52.465Z,7.47
2018-04-22T13:42:19.930Z,7.70
2018-04-22T13:44:47.418Z,6.90
2018-04-22T13:47:14.888Z,5.50
2018-04-22T13:49:42.357Z,5.95
2018-04-22T13:52:09.826Z,6.17
2018-04-22T13:54:37.314Z,7.83
2018-04-22T13:57:04.782Z,7.73
2018-04-22T13:59:32.268Z,4.25
2018-04-22T14:01:59.729Z,6.13
2018-04-22T14:04:27.232Z,6.22
2018-04-22T14:06:54.711Z,4.77
2018-04-22T14:09:22.194Z,5.23
2018-04-22T14:11:49.654Z,6.93
2018-04-22T14:14:17.129Z,8.63
2018-04-22T14:16:44.646Z,7.13
2018-04-22T14:19:12.122Z,5.10
2018-04-22T14:21:39.583Z,7.57
2018-04-22T14:24:07.053Z,5.57
2018-04-22T14:26:34.509Z,7.33
2018-04-22T14:29:01.982Z,5.83
2018-04-22T14:31:29.442Z,8.00
2018-04-22T14:33:56.922Z,6.07
2018-04-22T14:36:24.381Z,5.03
2018-04-22T14:38:51.862Z,6.97
2018-04-22T14:41:19.336Z,7.93
2018-04-22T14:43:58.620Z,6.40
2018-04-22T14:46:26.086Z,8.13
2018-04-22T14:49:05.264Z,6.63
2018-04-22T14:51:32.717Z,4.07
2018-04-22T14:54:00.190Z,4.80
2018-04-22T14:56:27.646Z,6.53
2018-04-22T14:58:55.851Z,4.03
2018-04-22T15:01:23.311Z,5.23
2018-04-22T15:03:50.794Z,5.35
2018-04-22T15:06:18.277Z,15.73
2018-04-22T15:08:45.769Z,4.72
2018-04-22T15:11:13.270Z,6.97
2018-04-22T15:13:40.726Z,6.57
2018-04-22T15:16:08.210Z,6.32
2018-04-22T15:18:35.677Z,6.50
2018-04-22T15:21:03.154Z,5.47
2018-04-22T15:23:30.609Z,5.70
2018-04-22T15:25:58.082Z,5.35
2018-04-22T15:28:25.533Z,8.13
2018-04-22T15:30:53.013Z,8.75
2018-04-22T15:33:20.473Z,8.10
2018-04-22T15:35:47.951Z,7.37
2018-04-22T15:38:15.410Z,5.75
2018-04-22T15:40:42.886Z,5.62
2018-04-22T15:43:10.354Z,14.15
2018-04-22T15:45:37.835Z,6.03
2018-04-22T15:48:05.298Z,6.82
2018-04-22T15:50:32.789Z,9.40
2018-04-22T15:53:00.279Z,11.45
2018-04-22T15:55:27.753Z,6.40
2018-04-22T15:57:55.215Z,7.20
2018-04-22T16:00:22.689Z,6.53
2018-04-22T16:02:50.154Z,11.43
2018-04-22T16:05:17.643Z,7.07
2018-04-22T16:07:45.096Z,8.83
2018-04-22T16:10:12.575Z,6.60
2018-04-22T16:12:40.035Z,6.87
2018-04-22T16:15:07.514Z,9.27
2018-04-22T16:17:34.988Z,8.57
2018-04-22T16:20:02.542Z,7.10
2018-04-22T16:22:29.997Z,5.93
2018-04-22T16:24:57.483Z,7.57
2018-04-22T16:27:24.944Z,8.60
2018-04-22T16:29:52.420Z,5.67
2018-04-22T16:32:20.673Z,6.83
2018-04-22T16:34:48.157Z,7.20
2018-04-22T16:37:15.729Z,6.47
2018-04-22T16:39:43.185Z,6.50
2018-04-22T16:42:10.669Z,6.07
2018-04-22T16:44:38.994Z,10.30
2018-04-22T16:47:06.479Z,5.93
2018-04-22T16:49:33.934Z,8.67
2018-04-22T16:52:01.420Z,6.47
2018-04-22T16:54:28.870Z,8.80
2018-04-22T16:56:56.345Z,8.63
2018-04-22T16:59:23.806Z,8.00
2018-04-22T17:01:51.282Z,6.10
2018-04-22T17:04:18.733Z,9.53
2018-04-22T17:06:46.205Z,7.83
2018-04-22T17:09:13.680Z,10.03
2018-04-22T17:11:41.153Z,8.40
2018-04-22T17:14:09.545Z,9.40
2018-04-22T17:16:37.031Z,11.80
2018-04-22T17:19:04.485Z,13.17
2018-04-22T17:21:31.964Z,8.50
2018-04-22T17:23:59.427Z,10.90
2018-04-22T17:26:26.905Z,9.43
2018-04-22T17:28:54.372Z,8.93
2018-04-22T17:31:21.870Z,10.37
2018-04-22T17:33:50.329Z,8.50
2018-04-22T17:36:17.810Z,8.30
2018-04-22T17:38:45.629Z,7.47
2018-04-22T17:41:13.110Z,9.93
2018-04-22T17:43:40.566Z,6.63
2018-04-22T17:46:08.054Z,11.03
2018-04-22T17:48:35.514Z,11.33
2018-04-22T17:51:02.993Z,10.13
2018-04-22T17:53:30.450Z,8.40
2018-04-22T17:55:57.926Z,9.00
2018-04-22T17:58:25.382Z,9.83
2018-04-22T18:00:52.857Z,12.77
2018-04-22T18:03:20.315Z,14.83
2018-04-22T18:05:48.009Z,14.13
2018-04-22T18:08:15.489Z,12.77
2018-04-22T18:10:42.949Z,13.80
2018-04-22T18:13:10.446Z,10.43
2018-04-22T18:15:37.910Z,13.20
2018-04-22T18:18:05.390Z,13.23
2018-04-22T18:20:32.853Z,12.47
2018-04-22T18:23:00.348Z,10.20
2018-04-22T18:25:27.801Z,13.17
2018-04-22T18:27:55.289Z,10.50
2018-04-22T18:30:22.746Z,12.70
2018-04-22T18:32:50.232Z,9.17
2018-04-22T18:35:17.685Z,11.03
2018-04-22T18:37:45.165Z,10.63
2018-04-22T18:40:12.623Z,10.37
2018-04-22T18:42:40.110Z,10.37
2018-04-22T18:45:07.570Z,12.77
2018-04-22T18:47:35.049Z,12.33
2018-04-22T18:50:02.847Z,13.30
2018-04-22T18:52:30.322Z,10.97
2018-04-22T18:54:57.797Z,9.53
2018-04-22T18:57:25.278Z,13.93
2018-04-22T18:59:52.754Z,11.10
2018-04-22T19:02:20.237Z,10.33
2018-04-22T19:04:47.705Z,8.60
2018-04-22T19:07:15.244Z,8.17
2018-04-22T19:09:42.709Z,8.77
2018-04-22T19:12:10.199Z,13.87
2018-04-22T19:14:37.653Z,10.40
2018-04-22T19:17:05.134Z,12.40
2018-04-22T19:19:32.594Z,10.40
2018-04-22T19:22:00.075Z,8.80
2018-04-22T19:24:27.561Z,8.73
2018-04-22T19:26:55.037Z,9.63
2018-04-22T19:29:22.498Z,12.20
2018-04-22T19:31:49.954Z,7.97
2018-04-22T19:34:17.431Z,10.90
2018-04-22T19:36:44.894Z,13.63
2018-04-22T19:39:12.369Z,10.13
2018-04-22T19:41:39.830Z,10.77
2018-04-22T19:44:07.320Z,9.07
2018-04-22T19:46:34.785Z,8.60
2018-04-22T19:49:02.266Z,14.73
2018-04-22T19:51:29.741Z,12.00
2018-04-22T19:53:57.230Z,11.90
2018-04-22T19:56:25.330Z,12.17
2018-04-22T19:58:52.809Z,11.70
2018-04-22T20:01:20.267Z,15.13
2018-04-22T20:03:47.753Z,10.73
2018-04-22T20:06:15.213Z,12.23
2018-04-22T20:08:42.689Z,11.37
2018-04-22T20:11:10.160Z,12.80
2018-04-22T20:13:38.390Z,10.77
2018-04-22T20:16:05.849Z,10.53
2018-04-22T20:18:33.329Z,8.57
2018-04-22T20:21:01.256Z,15.67
2018-04-22T20:23:28.733Z,11.10
2018-04-22T20:25:56.194Z,10.43
2018-04-22T20:28:23.682Z,8.50
2018-04-22T20:30:51.149Z,14.60
2018-04-22T20:33:18.633Z,10.77
2018-04-22T20:35:46.102Z,11.00
2018-04-22T20:38:13.577Z,8.60
2018-04-22T20:40:41.031Z,9.63
2018-04-22T20:43:08.507Z,11.43
2018-04-22T20:45:35.988Z,9.37
2018-04-22T20:48:04.199Z,9.03
2018-04-22T20:50:31.670Z,9.80
2018-04-22T20:52:59.130Z,10.30
2018-04-22T20:55:26.615Z,12.60
2018-04-22T20:57:54.090Z,14.00
2018-04-22T21:00:21.605Z,10.40
2018-04-22T21:02:49.070Z,14.73
2018-04-22T21:05:16.546Z,9.30
2018-04-22T21:07:43.993Z,9.67
2018-04-22T21:10:11.474Z,12.83
2018-04-22T21:12:38.941Z,11.83
2018-04-22T21:15:06.420Z,10.47
2018-04-22T21:17:33.884Z,8.77
2018-04-22T21:20:01.363Z,10.67
2018-04-22T21:22:28.842Z,14.97
2018-04-22T21:24:56.330Z,10.20
2018-04-22T21:27:23.789Z,15.00
2018-04-22T21:29:51.274Z,10.40
2018-04-22T21:32:18.747Z,11.17
2018-04-22T21:34:46.220Z,10.33
2018-04-22T21:37:13.686Z,11.63
2018-04-22T21:39:41.209Z,12.87
2018-04-22T21:42:08.667Z,11.53
2018-04-22T21:44:36.153Z,13.07
2018-04-22T21:47:03.625Z,9.73
2018-04-22T21:49:31.101Z,12.10
2018-04-22T21:51:58.557Z,15.47
2018-04-22T21:54:26.037Z,12.57
2018-04-22T21:56:53.502Z,11.70
2018-04-22T21:59:20.982Z,14.70
2018-04-22T22:01:48.441Z,12.83
2018-04-22T22:04:15.918Z,13.37
2018-04-22T22:06:43.381Z,11.80
2018-04-22T22:09:10.856Z,9.87
2018-04-22T22:11:38.313Z,11.77
2018-04-22T22:14:05.785Z,9.87
2018-04-22T22:16:33.565Z,14.63
2018-04-22T22:19:01.030Z,13.40
2018-04-22T22:21:28.512Z,11.30
2018-04-22T22:23:55.974Z,11.23
2018-04-22T22:26:23.445Z,8.73
2018-04-22T22:28:50.917Z,15.70
2018-04-22T22:31:18.389Z,11.87
2018-04-22T22:33:45.849Z,13.50
2018-04-22T22:36:13.336Z,13.53
2018-04-22T22:38:40.798Z,11.40
2018-04-22T22:41:08.889Z,12.10
2018-04-22T22:43:37.244Z,11.07
2018-04-22T22:46:04.738Z,14.20
2018-04-22T22:48:32.197Z,11.63
2018-04-22T22:50:59.678Z,8.43
2018-04-22T22:53:27.143Z,13.60
2018-04-22T22:55:54.621Z,12.87
2018-04-22T22:58:22.077Z,11.63
2018-04-22T23:00:49.555Z,15.43
2018-04-22T23:03:17.018Z,10.03
2018-04-22T23:05:44.503Z,14.13
2018-04-22T23:08:11.973Z,14.37
2018-04-22T23:10:39.469Z,12.33
2018-04-22T23:13:06.929Z,16.57
2018-04-22T23:15:34.406Z,17.40
2018-04-22T23:18:01.878Z,11.67
2018-04-22T23:20:29.358Z,11.03
2018-04-22T23:22:56.820Z,9.67
2018-04-22T23:25:24.305Z,14.17
2018-04-22T23:27:51.761Z,11.37
2018-04-22T23:30:19.245Z,11.10
2018-04-22T23:32:46.703Z,10.73
2018-04-22T23:35:14.183Z,10.77
2018-04-22T23:37:41.659Z,10.67
2018-04-22T23:40:09.150Z,7.47
2018-04-22T23:42:36.631Z,8.87
2018-04-22T23:45:04.157Z,14.57
2018-04-22T23:47:31.631Z,7.27
2018-04-22T23:49:59.101Z,7.33
2018-04-22T23:52:26.593Z,13.50
2018-04-22T23:54:54.066Z,9.57
2018-04-22T23:57:21.554Z,7.53
2018-04-22T23:59:49.134Z,6.40
